createdAt,value
2018-05-17T00:02:17.972Z,15.27
2018-05-17T00:04:45.472Z,15.35
2018-05-17T00:07:12.961Z,14.40
2018-05-17T00:09:41.341Z,15.57
2018-05-17T00:12:09.590Z,15.25
2018-05-17T00:14:37.088Z,15.70
2018-05-17T00:17:05.341Z,13.70
2018-05-17T00:19:32.825Z,15.23
2018-05-17T00:22:02.090Z,13.02
2018-05-17T00:24:29.572Z,14.95
2018-05-17T00:26:57.841Z,16.20
2018-05-17T00:29:36.957Z,16.05
2018-05-17T00:32:05.194Z,15.43
2018-05-17T00:34:35.760Z,16.17
2018-05-17T00:37:03.510Z,14.85
2018-05-17T00:39:30.993Z,15.65
2018-05-17T00:41:58.613Z,14.85
2018-05-17T00:44:26.105Z,16.65
2018-05-17T00:46:53.869Z,15.57
2018-05-17T00:49:22.132Z,15.48
2018-05-17T00:51:49.628Z,16.37
2018-05-17T00:54:18.009Z,15.95
2018-05-17T00:56:46.277Z,15.95
2018-05-17T00:59:13.878Z,15.85
2018-05-17T01:01:41.381Z,14.48
2018-05-17T01:04:08.860Z,15.07
2018-05-17T01:06:36.515Z,15.00
2018-05-17T01:09:03.996Z,15.75
2018-05-17T01:11:32.266Z,14.55
2018-05-17T01:14:01.369Z,15.15
2018-05-17T01:16:29.629Z,14.50
2018-05-17T01:18:57.110Z,16.08
2018-05-17T01:21:25.377Z,15.65
2018-05-17T01:23:55.722Z,15.43
2018-05-17T01:26:23.990Z,15.90
2018-05-17T01:28:52.250Z,14.38
2018-05-17T01:31:20.662Z,17.00
2018-05-17T01:33:48.138Z,18.33
2018-05-17T01:36:15.620Z,19.60
2018-05-17T01:38:46.248Z,20.00
2018-05-17T01:41:13.737Z,19.25
2018-05-17T01:43:41.261Z,18.55
2018-05-17T01:46:08.746Z,17.73
2018-05-17T01:48:37.241Z,18.48
2018-05-17T01:51:05.322Z,19.25
2018-05-17T01:53:33.948Z,19.42
2018-05-17T01:56:01.433Z,20.70
2018-05-17T01:58:28.934Z,20.92
2018-05-17T02:00:57.181Z,22.13
2018-05-17T02:03:25.440Z,19.87
2018-05-17T02:05:53.045Z,20.30
2018-05-17T02:08:21.433Z,21.12
2018-05-17T02:10:49.837Z,22.60
2018-05-17T02:13:17.345Z,21.75
2018-05-17T02:15:44.825Z,23.62
2018-05-17T02:18:13.097Z,23.50
2018-05-17T02:20:41.474Z,26.62
2018-05-17T02:23:10.489Z,26.58
2018-05-17T02:25:38.856Z,25.12
2018-05-17T02:28:07.253Z,26.65
2018-05-17T02:30:34.762Z,25.80
2018-05-17T02:33:02.292Z,27.17
2018-05-17T02:35:29.886Z,28.65
2018-05-17T02:37:57.395Z,29.45
2018-05-17T02:40:24.881Z,29.87
2018-05-17T02:42:52.504Z,28.15
2018-05-17T02:45:20.837Z,31.37
2018-05-17T02:47:48.342Z,29.80
2018-05-17T02:50:17.537Z,33.13
2018-05-17T02:52:45.921Z,30.75
2018-05-17T02:55:14.561Z,30.70
2018-05-17T02:57:42.066Z,30.58
2018-05-17T03:00:10.332Z,31.50
2018-05-17T03:02:38.607Z,32.08
2018-05-17T03:05:06.112Z,30.67
2018-05-17T03:07:33.710Z,30.67
2018-05-17T03:10:02.102Z,28.75
2018-05-17T03:12:29.585Z,32.10
2018-05-17T03:14:57.853Z,30.70
2018-05-17T03:17:26.099Z,28.30
2018-05-17T03:19:53.601Z,30.73
2018-05-17T03:22:21.845Z,28.02
2018-05-17T03:24:50.089Z,27.65
2018-05-17T03:27:18.277Z,27.37
2018-05-17T03:29:45.789Z,27.70
2018-05-17T03:32:14.088Z,25.98
2018-05-17T03:34:41.597Z,25.23
2018-05-17T03:37:09.085Z,28.15
2018-05-17T03:39:37.361Z,27.05
2018-05-17T03:42:05.718Z,27.40
2018-05-17T03:44:33.214Z,26.05
2018-05-17T03:47:01.005Z,26.17
2018-05-17T03:49:30.289Z,27.45
2018-05-17T03:51:57.775Z,25.48
2018-05-17T03:54:25.294Z,26.83
2018-05-17T03:56:53.537Z,25.70
2018-05-17T03:59:21.041Z,24.37
2018-05-17T04:02:00.449Z,25.08
2018-05-17T04:04:40.648Z,25.60
2018-05-17T04:07:08.129Z,27.35
2018-05-17T04:09:35.637Z,23.92
2018-05-17T04:12:04.001Z,23.85
2018-05-17T04:14:32.619Z,22.17
2018-05-17T04:17:00.140Z,24.83
2018-05-17T04:19:27.699Z,22.83
2018-05-17T04:21:55.206Z,21.55
2018-05-17T04:24:22.723Z,23.48
2018-05-17T04:26:50.345Z,22.15
2018-05-17T04:29:18.048Z,21.10
2018-05-17T04:31:45.673Z,20.20
2018-05-17T04:34:13.197Z,18.12
2018-05-17T04:36:41.818Z,18.45
2018-05-17T04:39:10.161Z,18.90
2018-05-17T04:41:37.650Z,19.17
2018-05-17T04:44:05.273Z,17.33
2018-05-17T04:46:33.530Z,17.95
2018-05-17T04:49:03.981Z,17.92
2018-05-17T04:51:32.253Z,19.20
2018-05-17T04:54:01.345Z,18.75
2018-05-17T04:56:29.615Z,17.10
2018-05-17T04:58:57.132Z,18.33
2018-05-17T05:01:24.633Z,21.25
2018-05-17T05:03:52.122Z,23.85
2018-05-17T05:06:19.629Z,28.08
2018-05-17T05:08:47.953Z,29.08
2018-05-17T05:11:16.217Z,32.22
2018-05-17T05:13:47.766Z,33.85
2018-05-17T05:16:16.164Z,36.67
2018-05-17T05:18:44.517Z,35.63
2018-05-17T05:21:12.025Z,38.70
2018-05-17T05:23:39.514Z,37.40
2018-05-17T05:26:08.097Z,36.85
2018-05-17T05:28:35.582Z,39.38
2018-05-17T05:31:03.976Z,38.80
2018-05-17T05:33:32.217Z,39.38
2018-05-17T05:35:59.724Z,37.15
2018-05-17T05:38:28.225Z,36.97
2018-05-17T05:40:56.597Z,38.58
2018-05-17T05:43:24.072Z,41.35
2018-05-17T05:45:51.573Z,40.28
2018-05-17T05:48:22.917Z,42.80
2018-05-17T05:50:52.366Z,47.15
2018-05-17T05:53:24.601Z,51.97
2018-05-17T05:55:55.155Z,57.15
2018-05-17T05:58:24.132Z,46.10
2018-05-17T06:00:54.763Z,44.33
2018-05-17T06:03:22.385Z,41.37
2018-05-17T06:05:50.948Z,42.42
2018-05-17T06:08:22.460Z,40.05
2018-05-17T06:10:50.081Z,42.80
2018-05-17T06:13:17.796Z,40.92
2018-05-17T06:15:47.196Z,37.42
2018-05-17T06:18:15.522Z,38.70
2018-05-17T06:20:43.853Z,39.05
2018-05-17T06:23:14.101Z,39.55
2018-05-17T06:25:42.477Z,41.55
2018-05-17T06:28:11.330Z,39.78
2018-05-17T06:30:38.828Z,39.22
2018-05-17T06:33:07.204Z,38.63
2018-05-17T06:35:39.373Z,37.60
2018-05-17T06:38:07.629Z,41.55
2018-05-17T06:40:35.132Z,39.25
2018-05-17T06:43:03.508Z,43.60
2018-05-17T06:45:30.981Z,40.08
2018-05-17T06:48:01.569Z,43.42
2018-05-17T06:50:29.845Z,42.42
2018-05-17T06:52:57.561Z,43.00
2018-05-17T06:55:25.212Z,40.53
2018-05-17T06:57:52.692Z,33.15
2018-05-17T07:00:20.177Z,33.97
2018-05-17T07:02:51.718Z,31.23
2018-05-17T07:05:19.197Z,30.25
2018-05-17T07:07:46.697Z,31.27
2018-05-17T07:10:14.180Z,31.75
2018-05-17T07:12:42.576Z,28.45
2018-05-17T07:15:10.063Z,28.45
2018-05-17T07:17:39.837Z,28.17
2018-05-17T07:20:07.315Z,27.70
2018-05-17T07:22:34.822Z,27.67
2018-05-17T07:25:02.322Z,27.35
2018-05-17T07:27:29.846Z,27.00
2018-05-17T07:29:58.257Z,27.92
2018-05-17T07:32:25.973Z,25.55
2018-05-17T07:34:54.333Z,25.17
2018-05-17T07:37:22.607Z,25.50
2018-05-17T07:39:50.322Z,24.73
2018-05-17T07:42:17.834Z,24.60
2018-05-17T07:44:45.548Z,25.45
2018-05-17T07:47:15.999Z,24.12
2018-05-17T07:49:47.352Z,21.58
2018-05-17T07:52:15.889Z,18.70
2018-05-17T07:54:44.137Z,18.37
2018-05-17T07:57:12.418Z,18.33
2018-05-17T07:59:40.668Z,18.55
2018-05-17T08:02:08.168Z,19.62
2018-05-17T08:04:46.496Z,19.40
2018-05-17T08:07:14.932Z,16.50
2018-05-17T08:09:49.314Z,18.50
2018-05-17T08:12:17.444Z,19.33
2018-05-17T08:14:45.926Z,20.88
2018-05-17T08:17:14.211Z,21.12
2018-05-17T08:19:42.585Z,22.87
2018-05-17T08:22:11.088Z,24.20
2018-05-17T08:24:38.621Z,23.08
2018-05-17T08:27:07.191Z,18.58
2018-05-17T08:29:34.671Z,20.98
2018-05-17T08:32:03.777Z,21.67
2018-05-17T08:34:32.030Z,19.67
2018-05-17T08:36:59.742Z,22.30
2018-05-17T08:39:30.313Z,21.87
2018-05-17T08:42:00.669Z,23.70
2018-05-17T08:44:28.149Z,22.62
2018-05-17T08:46:57.489Z,26.05
2018-05-17T08:49:25.090Z,25.62
2018-05-17T08:51:53.361Z,26.05
2018-05-17T08:54:20.841Z,28.73
2018-05-17T08:56:48.365Z,29.42
2018-05-17T08:59:17.834Z,30.52
2018-05-17T09:01:45.349Z,31.52
2018-05-17T09:04:13.066Z,32.15
2018-05-17T09:06:40.678Z,34.05
2018-05-17T09:09:08.952Z,32.40
2018-05-17T09:11:37.442Z,34.10
2018-05-17T09:14:05.709Z,37.17
2018-05-17T09:16:33.298Z,36.08
2018-05-17T09:19:01.649Z,36.78
2018-05-17T09:21:29.141Z,39.25
2018-05-17T09:23:56.878Z,39.05
2018-05-17T09:26:25.134Z,36.33
2018-05-17T09:28:52.864Z,37.45
2018-05-17T09:31:21.165Z,35.58
2018-05-17T09:33:49.534Z,39.08
2018-05-17T09:36:17.030Z,38.50
2018-05-17T09:38:44.529Z,39.10
2018-05-17T09:41:12.776Z,39.38
2018-05-17T09:43:42.101Z,41.47
2018-05-17T09:46:12.569Z,41.20
2018-05-17T09:48:40.073Z,40.10
2018-05-17T09:51:08.329Z,41.05
2018-05-17T09:53:35.977Z,37.88
2018-05-17T09:56:03.510Z,37.65
2018-05-17T09:58:31.016Z,39.10
2018-05-17T10:00:58.498Z,38.75
2018-05-17T10:03:27.927Z,38.35
2018-05-17T10:05:55.417Z,38.05
2018-05-17T10:08:22.993Z,38.88
2018-05-17T10:10:50.482Z,37.80
2018-05-17T10:13:18.750Z,35.22
2018-05-17T10:15:47.006Z,35.50
2018-05-17T10:18:14.526Z,32.22
2018-05-17T10:20:42.245Z,30.23
2018-05-17T10:23:10.652Z,31.65
2018-05-17T10:25:41.917Z,30.80
2018-05-17T10:28:09.432Z,32.03
2018-05-17T10:30:36.914Z,31.40
2018-05-17T10:33:06.046Z,32.28
2018-05-17T10:35:33.645Z,32.58
2018-05-17T10:38:01.342Z,33.20
2018-05-17T10:40:30.643Z,35.20
2018-05-17T10:43:05.691Z,30.58
2018-05-17T10:45:33.941Z,31.37
2018-05-17T10:48:02.223Z,31.42
2018-05-17T10:50:30.576Z,32.95
2018-05-17T10:52:58.057Z,31.92
2018-05-17T10:55:26.329Z,31.58
2018-05-17T10:57:54.614Z,33.97
2018-05-17T11:00:23.104Z,32.97
2018-05-17T11:02:51.533Z,31.33
2018-05-17T11:05:19.929Z,29.67
2018-05-17T11:07:47.413Z,30.17
2018-05-17T11:10:15.832Z,32.55
2018-05-17T11:12:43.426Z,31.33
2018-05-17T11:15:17.924Z,31.17
2018-05-17T11:17:46.112Z,31.10
2018-05-17T11:20:14.472Z,30.88
2018-05-17T11:22:45.833Z,32.13
2018-05-17T11:25:13.438Z,31.85
2018-05-17T11:27:43.784Z,31.48
2018-05-17T11:30:11.409Z,31.55
2018-05-17T11:32:39.725Z,30.77
2018-05-17T11:35:07.228Z,34.08
2018-05-17T11:37:34.908Z,32.85
2018-05-17T11:40:02.413Z,34.80
2018-05-17T11:42:30.129Z,32.40
2018-05-17T11:44:57.796Z,31.27
2018-05-17T11:47:28.109Z,32.35
2018-05-17T11:49:55.613Z,28.87
2018-05-17T11:52:23.857Z,31.42
2018-05-17T11:54:51.357Z,31.12
2018-05-17T11:57:18.845Z,31.23
2018-05-17T11:59:47.053Z,31.35
2018-05-17T12:02:14.537Z,30.70
2018-05-17T12:04:42.810Z,29.45
2018-05-17T12:07:11.069Z,30.60
2018-05-17T12:09:38.572Z,31.75
2018-05-17T12:12:06.185Z,29.25
2018-05-17T12:14:33.721Z,30.77
2018-05-17T12:17:01.260Z,30.45
2018-05-17T12:19:28.765Z,31.98
2018-05-17T12:21:56.405Z,25.12
2018-05-17T12:24:23.912Z,25.58
2018-05-17T12:26:52.196Z,25.20
2018-05-17T12:29:20.569Z,26.50
2018-05-17T12:31:48.960Z,26.77
2018-05-17T12:34:16.453Z,27.80
2018-05-17T12:36:44.058Z,29.08
2018-05-17T12:39:12.446Z,29.15
2018-05-17T12:41:41.608Z,29.40
2018-05-17T12:44:16.558Z,29.50
2018-05-17T12:46:50.728Z,28.60
2018-05-17T12:49:18.342Z,26.98
2018-05-17T12:51:48.743Z,26.58
2018-05-17T12:54:17.333Z,25.30
2018-05-17T12:56:45.005Z,24.85
2018-05-17T12:59:14.057Z,26.50
2018-05-17T13:01:48.796Z,25.52
2018-05-17T13:04:17.129Z,24.65
2018-05-17T13:06:46.489Z,22.37
2018-05-17T13:09:14.257Z,22.87
2018-05-17T13:11:41.763Z,24.40
2018-05-17T13:14:09.257Z,22.23
2018-05-17T13:16:36.769Z,22.85
2018-05-17T13:19:04.433Z,23.92
2018-05-17T13:21:31.937Z,23.25
2018-05-17T13:24:00.229Z,24.73
2018-05-17T13:26:27.856Z,23.12
2018-05-17T13:28:56.137Z,22.62
2018-05-17T13:31:28.412Z,22.05
2018-05-17T13:33:56.663Z,21.75
2018-05-17T13:36:24.173Z,20.45
2018-05-17T13:38:51.657Z,22.05
2018-05-17T13:41:19.500Z,22.13
2018-05-17T13:43:49.982Z,22.95
2018-05-17T13:46:18.262Z,19.98
2018-05-17T13:48:52.281Z,21.55
2018-05-17T13:51:20.544Z,21.77
2018-05-17T13:53:48.161Z,20.60
2018-05-17T13:56:16.487Z,21.95
2018-05-17T13:58:46.993Z,21.10
2018-05-17T14:01:21.329Z,20.40
2018-05-17T14:03:48.871Z,20.30
2018-05-17T14:06:17.437Z,19.27
2018-05-17T14:08:44.926Z,19.58
2018-05-17T14:11:12.693Z,20.95
2018-05-17T14:13:41.225Z,19.80
2018-05-17T14:16:08.798Z,18.62
2018-05-17T14:18:36.285Z,20.40
2018-05-17T14:21:04.657Z,20.23
2018-05-17T14:23:32.817Z,18.80
2018-05-17T14:26:00.453Z,21.12
2018-05-17T14:28:31.083Z,20.20
2018-05-17T14:30:59.388Z,17.70
2018-05-17T14:33:27.114Z,17.73
2018-05-17T14:35:58.544Z,20.90
2018-05-17T14:38:29.241Z,18.15
2018-05-17T14:40:56.864Z,17.30
2018-05-17T14:43:26.097Z,18.02
2018-05-17T14:45:53.930Z,19.90
2018-05-17T14:48:22.307Z,19.70
2018-05-17T14:50:52.321Z,19.12
2018-05-17T14:53:21.557Z,19.65
2018-05-17T14:55:49.082Z,19.58
2018-05-17T14:58:17.345Z,20.15
2018-05-17T15:00:44.909Z,18.77
2018-05-17T15:03:13.366Z,18.62
2018-05-17T15:05:40.913Z,18.67
2018-05-17T15:08:09.669Z,17.83
2018-05-17T15:10:41.097Z,18.27
2018-05-17T15:13:09.477Z,17.25
2018-05-17T15:15:37.097Z,18.60
2018-05-17T15:18:05.066Z,17.92
2018-05-17T15:20:32.783Z,16.83
2018-05-17T15:23:01.075Z,17.50
2018-05-17T15:25:29.340Z,16.37
2018-05-17T15:27:57.728Z,15.95
2018-05-17T15:30:26.337Z,16.00
2018-05-17T15:32:59.901Z,15.52
2018-05-17T15:35:30.773Z,16.55
2018-05-17T15:37:58.284Z,14.93
2018-05-17T15:40:26.507Z,16.50
2018-05-17T15:42:54.946Z,15.98
2018-05-17T15:45:22.437Z,15.70
2018-05-17T15:47:49.945Z,14.87
2018-05-17T15:50:17.436Z,16.40
2018-05-17T15:52:44.941Z,16.50
2018-05-17T15:55:12.421Z,15.55
2018-05-17T15:57:39.921Z,15.88
2018-05-17T16:00:08.179Z,14.52
2018-05-17T16:02:35.677Z,14.85
2018-05-17T16:05:03.434Z,14.98
2018-05-17T16:07:33.240Z,15.40
2018-05-17T16:10:01.599Z,17.95
2018-05-17T16:12:29.873Z,15.43
2018-05-17T16:14:57.502Z,16.25
2018-05-17T16:17:24.897Z,14.57
2018-05-17T16:19:52.395Z,13.90
2018-05-17T16:22:19.903Z,15.65
2018-05-17T16:24:47.430Z,13.62
2018-05-17T16:27:14.985Z,13.05
2018-05-17T16:29:42.541Z,12.95
2018-05-17T16:32:10.049Z,11.60
2018-05-17T16:34:44.485Z,10.75
2018-05-17T16:37:12.037Z,9.98
2018-05-17T16:39:39.610Z,11.02
2018-05-17T16:42:07.881Z,10.30
2018-05-17T16:44:38.367Z,9.77
2018-05-17T16:47:05.952Z,8.70
2018-05-17T16:49:33.690Z,9.27
2018-05-17T16:52:01.328Z,8.88
2018-05-17T16:54:28.830Z,8.23
2018-05-17T16:56:57.014Z,8.60
2018-05-17T16:59:24.621Z,8.45
2018-05-17T17:01:53.920Z,8.85
2018-05-17T17:04:21.460Z,8.07
2018-05-17T17:06:48.964Z,8.40
2018-05-17T17:09:16.494Z,8.68
2018-05-17T17:11:43.972Z,8.90
2018-05-17T17:14:12.246Z,8.20
2018-05-17T17:16:39.733Z,9.23
2018-05-17T17:19:07.264Z,9.52
2018-05-17T17:21:35.519Z,9.93
2018-05-17T17:24:03.024Z,11.52
2018-05-17T17:26:31.273Z,11.25
2018-05-17T17:28:58.793Z,11.68
2018-05-17T17:31:26.281Z,11.93
2018-05-17T17:33:53.785Z,13.73
2018-05-17T17:36:21.306Z,11.77
2018-05-17T17:38:48.805Z,11.57
2018-05-17T17:41:16.289Z,13.35
2018-05-17T17:43:43.813Z,13.65
2018-05-17T17:46:11.329Z,13.20
2018-05-17T17:48:38.834Z,12.13
2018-05-17T17:51:07.085Z,13.05
2018-05-17T17:53:34.598Z,13.00
2018-05-17T17:56:02.077Z,12.27
2018-05-17T17:58:29.685Z,13.32
2018-05-17T18:00:57.837Z,14.30
2018-05-17T18:03:25.339Z,14.35
2018-05-17T18:05:52.826Z,14.48
2018-05-17T18:08:20.324Z,13.25
2018-05-17T18:10:47.811Z,14.02
2018-05-17T18:13:15.319Z,13.52
2018-05-17T18:15:42.806Z,13.73
2018-05-17T18:18:11.085Z,14.18
2018-05-17T18:20:39.337Z,14.90
2018-05-17T18:23:06.849Z,15.02
2018-05-17T18:25:34.328Z,13.40
2018-05-17T18:28:01.812Z,15.65
2018-05-17T18:30:29.318Z,15.15
2018-05-17T18:32:57.573Z,13.32
2018-05-17T18:35:25.842Z,14.73
2018-05-17T18:37:53.325Z,13.43
2018-05-17T18:40:21.597Z,12.50
2018-05-17T18:42:49.845Z,13.50
2018-05-17T18:45:17.356Z,14.95
2018-05-17T18:47:44.849Z,13.77
2018-05-17T18:50:12.349Z,12.80
2018-05-17T18:52:40.601Z,14.57
2018-05-17T18:55:08.115Z,15.80
2018-05-17T18:57:35.602Z,14.10
2018-05-17T19:00:03.113Z,15.85
2018-05-17T19:02:31.371Z,14.55
2018-05-17T19:04:59.646Z,14.48
2018-05-17T19:07:27.205Z,12.95
2018-05-17T19:09:55.495Z,11.35
2018-05-17T19:12:23.741Z,12.93
2018-05-17T19:14:51.240Z,14.27
2018-05-17T19:17:19.490Z,14.38
2018-05-17T19:19:47.000Z,13.15
2018-05-17T19:22:14.496Z,12.65
2018-05-17T19:24:42.053Z,15.65
2018-05-17T19:27:09.545Z,14.25
2018-05-17T19:29:37.818Z,12.95
2018-05-17T19:32:05.298Z,13.52
2018-05-17T19:34:33.571Z,14.23
2018-05-17T19:37:01.124Z,13.13
2018-05-17T19:39:28.573Z,13.60
2018-05-17T19:41:56.828Z,11.93
2018-05-17T19:44:25.102Z,13.30
2018-05-17T19:46:52.593Z,14.85
2018-05-17T19:49:20.862Z,15.20
2018-05-17T19:51:48.350Z,12.50
2018-05-17T19:54:15.873Z,14.57
2018-05-17T19:56:43.360Z,13.32
2018-05-17T19:59:11.625Z,14.35
2018-05-17T20:01:39.876Z,14.05
2018-05-17T20:04:07.375Z,14.27
2018-05-17T20:06:34.880Z,14.98
2018-05-17T20:09:02.371Z,14.73
2018-05-17T20:11:29.881Z,13.48
2018-05-17T20:13:57.381Z,15.30
2018-05-17T20:16:24.889Z,14.45
2018-05-17T20:18:52.381Z,14.15
2018-05-17T20:21:19.904Z,15.80
2018-05-17T20:23:47.393Z,14.65
2018-05-17T20:26:14.905Z,15.43
2018-05-17T20:28:43.161Z,15.70
2018-05-17T20:31:11.489Z,14.85
2018-05-17T20:33:39.908Z,14.85
2018-05-17T20:36:07.448Z,14.60
2018-05-17T20:38:34.934Z,15.80
2018-05-17T20:41:02.446Z,16.92
2018-05-17T20:43:29.936Z,15.00
2018-05-17T20:45:57.464Z,15.88
2018-05-17T20:48:24.965Z,14.45
2018-05-17T20:50:52.477Z,15.05
2018-05-17T20:53:19.961Z,15.10
2018-05-17T20:55:47.474Z,13.82
2018-05-17T20:58:15.724Z,14.32
2018-05-17T21:00:43.249Z,13.38
2018-05-17T21:03:10.727Z,28.33
2018-05-17T21:05:38.237Z,16.23
2018-05-17T21:08:06.493Z,15.48
2018-05-17T21:10:34.754Z,16.92
2018-05-17T21:13:02.260Z,15.27
2018-05-17T21:15:29.746Z,15.65
2018-05-17T21:17:57.253Z,15.52
2018-05-17T21:20:25.502Z,14.13
2018-05-17T21:22:53.007Z,16.33
2018-05-17T21:25:20.501Z,15.23
2018-05-17T21:27:48.013Z,17.77
2018-05-17T21:30:16.269Z,16.98
2018-05-17T21:32:43.781Z,15.95
2018-05-17T21:35:11.270Z,16.05
2018-05-17T21:37:38.780Z,16.83
2018-05-17T21:40:06.270Z,17.52
2018-05-17T21:42:33.774Z,20.45
2018-05-17T21:45:01.489Z,22.35
2018-05-17T21:47:28.997Z,19.02
2018-05-17T21:49:56.490Z,18.60
2018-05-17T21:52:23.973Z,19.25
2018-05-17T21:54:51.478Z,17.80
2018-05-17T21:57:19.733Z,17.33
2018-05-17T21:59:47.214Z,16.12
2018-05-17T22:02:14.717Z,17.70
2018-05-17T22:04:42.201Z,18.15
2018-05-17T22:07:09.698Z,18.42
2018-05-17T22:09:37.947Z,18.37
2018-05-17T22:12:05.441Z,19.80
2018-05-17T22:17:07.497Z,17.33
2018-05-17T22:19:34.986Z,19.33
2018-05-17T22:22:03.281Z,18.15
2018-05-17T22:24:30.782Z,20.45
2018-05-17T22:26:58.278Z,19.37
2018-05-17T22:29:26.523Z,17.60
2018-05-17T22:31:54.014Z,20.30
2018-05-17T22:34:22.259Z,20.48
2018-05-17T22:36:49.781Z,20.37
2018-05-17T22:39:17.256Z,20.17
2018-05-17T22:41:44.752Z,19.42
2018-05-17T22:44:12.231Z,19.87
2018-05-17T22:46:40.493Z,22.87
2018-05-17T22:49:08.741Z,20.80
2018-05-17T22:51:36.245Z,20.00
2018-05-17T22:54:04.488Z,18.80
2018-05-17T22:56:43.694Z,19.75
2018-05-17T22:59:11.182Z,21.37
2018-05-17T23:01:38.677Z,19.27
2018-05-17T23:04:06.924Z,19.02
2018-05-17T23:06:34.422Z,17.65
2018-05-17T23:09:02.661Z,20.08
2018-05-17T23:11:30.169Z,18.23
2018-05-17T23:13:57.660Z,19.48
2018-05-17T23:16:25.150Z,18.70
2018-05-17T23:18:52.646Z,20.48
2018-05-17T23:21:20.133Z,21.75
2018-05-17T23:23:47.636Z,19.27
2018-05-17T23:26:15.882Z,17.12
2018-05-17T23:28:43.379Z,17.52
2018-05-17T23:31:11.614Z,17.85
2018-05-17T23:33:39.109Z,18.70
2018-05-17T23:36:07.355Z,19.55
2018-05-17T23:38:34.853Z,19.15
2018-05-17T23:41:28.741Z,21.15
2018-05-17T23:43:56.237Z,19.58
2018-05-17T23:46:23.720Z,17.00
2018-05-17T23:48:51.218Z,18.55
2018-05-17T23:51:18.697Z,18.60
2018-05-17T23:53:46.193Z,17.40
2018-05-17T23:56:13.686Z,19.10
2018-05-17T23:58:41.954Z,14.65
